sensor_id;sensor_type;location;lat;lon;timestamp;pressure;altitude;pressure_sealevel;temperature;humidity
49645;BME280;36494;50.730;-1.932;2023-04-27T00:02:24;101160.72;;;9.79;100.00
49645;BME280;36494;50.730;-1.932;2023-04-27T00:04:50;101154.59;;;9.76;100.00
49645;BME280;36494;50.730;-1.932;2023-04-27T00:07:15;101153.12;;;9.65;100.00
49645;BME280;36494;50.730;-1.932;2023-04-27T00:09:40;101153.88;;;9.69;100.00
49645;BME280;36494;50.730;-1.932;2023-04-27T00:12:06;101156.24;;;9.71;100.00
49645;BME280;36494;50.730;-1.932;2023-04-27T00:14:31;101154.18;;;9.72;100.00
49645;BME280;36494;50.730;-1.932;2023-04-27T00:16:56;101150.11;;;9.71;100.00
49645;BME280;36494;50.730;-1.932;2023-04-27T00:19:21;101150.56;;;9.66;100.00
49645;BME280;36494;50.730;-1.932;2023-04-27T00:21:47;101146.86;;;9.58;100.00
49645;BME280;36494;50.730;-1.932;2023-04-27T00:24:12;101147.05;;;9.57;100.00
49645;BME280;36494;50.730;-1.932;2023-04-27T00:26:37;101150.44;;;9.63;100.00
49645;BME280;36494;50.730;-1.932;2023-04-27T00:29:02;101149.94;;;9.58;100.00
49645;BME280;36494;50.730;-1.932;2023-04-27T00:31:27;101154.15;;;9.64;100.00
49645;BME280;36494;50.730;-1.932;2023-04-27T00:33:52;101152.28;;;9.71;100.00
49645;BME280;36494;50.730;-1.932;2023-04-27T00:36:17;101153.94;;;9.69;100.00
49645;BME280;36494;50.730;-1.932;2023-04-27T00:38:43;101149.41;;;9.69;100.00
49645;BME280;36494;50.730;-1.932;2023-04-27T00:41:08;101145.40;;;9.68;100.00
49645;BME280;36494;50.730;-1.932;2023-04-27T00:43:42;101142.14;;;9.62;100.00
49645;BME280;36494;50.730;-1.932;2023-04-27T00:45:59;101139.48;;;9.64;100.00
49645;BME280;36494;50.730;-1.932;2023-04-27T00:48:24;101135.29;;;9.62;100.00
49645;BME280;36494;50.730;-1.932;2023-04-27T00:50:49;101130.08;;;9.70;100.00
49645;BME280;36494;50.730;-1.932;2023-04-27T00:53:15;101128.31;;;9.71;100.00
49645;BME280;36494;50.730;-1.932;2023-04-27T00:55:40;101116.66;;;9.71;100.00
49645;BME280;36494;50.730;-1.932;2023-04-27T00:58:05;101114.42;;;9.74;100.00
49645;BME280;36494;50.730;-1.932;2023-04-27T01:00:31;101111.20;;;9.78;100.00
49645;BME280;36494;50.730;-1.932;2023-04-27T01:02:56;101112.76;;;9.73;100.00
49645;BME280;36494;50.730;-1.932;2023-04-27T01:05:23;101115.88;;;9.77;100.00
49645;BME280;36494;50.730;-1.932;2023-04-27T01:07:47;101116.38;;;9.74;100.00
49645;BME280;36494;50.730;-1.932;2023-04-27T01:10:12;101115.81;;;9.73;100.00
49645;BME280;36494;50.730;-1.932;2023-04-27T01:12:38;101120.66;;;9.79;100.00
49645;BME280;36494;50.730;-1.932;2023-04-27T01:15:05;101122.54;;;9.79;100.00
49645;BME280;36494;50.730;-1.932;2023-04-27T01:17:29;101123.53;;;9.75;100.00
49645;BME280;36494;50.730;-1.932;2023-04-27T01:19:54;101123.85;;;9.79;100.00
49645;BME280;36494;50.730;-1.932;2023-04-27T01:22:19;101123.93;;;9.85;100.00
49645;BME280;36494;50.730;-1.932;2023-04-27T01:24:45;101124.45;;;9.88;100.00
49645;BME280;36494;50.730;-1.932;2023-04-27T01:27:10;101126.22;;;9.88;100.00
49645;BME280;36494;50.730;-1.932;2023-04-27T01:29:36;101127.95;;;9.87;100.00
49645;BME280;36494;50.730;-1.932;2023-04-27T01:32:01;101132.27;;;9.90;100.00
49645;BME280;36494;50.730;-1.932;2023-04-27T01:34:26;101133.29;;;9.94;100.00
49645;BME280;36494;50.730;-1.932;2023-04-27T01:36:52;101134.13;;;9.99;100.00
49645;BME280;36494;50.730;-1.932;2023-04-27T01:39:17;101136.31;;;9.99;100.00
49645;BME280;36494;50.730;-1.932;2023-04-27T01:41:43;101138.75;;;10.04;100.00
49645;BME280;36494;50.730;-1.932;2023-04-27T01:44:09;101135.21;;;10.01;100.00
49645;BME280;36494;50.730;-1.932;2023-04-27T01:46:34;101138.19;;;10.04;100.00
49645;BME280;36494;50.730;-1.932;2023-04-27T01:48:59;101141.30;;;10.05;100.00
49645;BME280;36494;50.730;-1.932;2023-04-27T01:51:25;101136.79;;;10.10;100.00
49645;BME280;36494;50.730;-1.932;2023-04-27T01:53:50;101137.03;;;10.10;100.00
49645;BME280;36494;50.730;-1.932;2023-04-27T01:56:16;101133.71;;;10.12;100.00
49645;BME280;36494;50.730;-1.932;2023-04-27T01:58:41;101130.43;;;10.15;100.00
49645;BME280;36494;50.730;-1.932;2023-04-27T02:01:07;101131.05;;;10.17;100.00
49645;BME280;36494;50.730;-1.932;2023-04-27T02:03:32;101120.98;;;10.13;100.00
49645;BME280;36494;50.730;-1.932;2023-04-27T02:05:58;101116.54;;;10.10;100.00
49645;BME280;36494;50.730;-1.932;2023-04-27T02:08:24;101109.72;;;10.11;100.00
49645;BME280;36494;50.730;-1.932;2023-04-27T02:10:49;101103.41;;;10.16;100.00
49645;BME280;36494;50.730;-1.932;2023-04-27T02:13:15;101094.18;;;10.15;100.00
49645;BME280;36494;50.730;-1.932;2023-04-27T02:15:40;101083.47;;;10.15;100.00
49645;BME280;36494;50.730;-1.932;2023-04-27T02:18:06;101074.85;;;10.17;100.00
49645;BME280;36494;50.730;-1.932;2023-04-27T02:20:32;101073.00;;;10.16;100.00
49645;BME280;36494;50.730;-1.932;2023-04-27T02:22:57;101069.60;;;10.18;100.00
49645;BME280;36494;50.730;-1.932;2023-04-27T02:25:22;101063.72;;;10.17;100.00
49645;BME280;36494;50.730;-1.932;2023-04-27T02:27:48;101059.85;;;10.13;100.00
49645;BME280;36494;50.730;-1.932;2023-04-27T02:30:13;101063.08;;;10.16;100.00
49645;BME280;36494;50.730;-1.932;2023-04-27T02:32:38;101063.09;;;10.14;100.00
49645;BME280;36494;50.730;-1.932;2023-04-27T02:35:04;101069.24;;;10.06;100.00
49645;BME280;36494;50.730;-1.932;2023-04-27T02:37:29;101065.82;;;10.15;100.00
49645;BME280;36494;50.730;-1.932;2023-04-27T02:39:55;101064.70;;;10.14;100.00
49645;BME280;36494;50.730;-1.932;2023-04-27T02:42:20;101069.21;;;10.11;100.00
49645;BME280;36494;50.730;-1.932;2023-04-27T02:44:45;101069.48;;;10.12;100.00
49645;BME280;36494;50.730;-1.932;2023-04-27T02:47:10;101067.56;;;10.16;100.00
49645;BME280;36494;50.730;-1.932;2023-04-27T02:49:36;101067.12;;;10.18;100.00
49645;BME280;36494;50.730;-1.932;2023-04-27T02:52:02;101065.54;;;10.14;100.00
49645;BME280;36494;50.730;-1.932;2023-04-27T02:54:27;101067.78;;;10.06;100.00
49645;BME280;36494;50.730;-1.932;2023-04-27T02:56:52;101067.64;;;10.09;100.00
49645;BME280;36494;50.730;-1.932;2023-04-27T02:59:18;101064.42;;;10.11;100.00
49645;BME280;36494;50.730;-1.932;2023-04-27T03:01:43;101059.89;;;10.10;100.00
49645;BME280;36494;50.730;-1.932;2023-04-27T03:04:09;101062.61;;;10.11;100.00
49645;BME280;36494;50.730;-1.932;2023-04-27T03:06:35;101057.52;;;10.03;100.00
49645;BME280;36494;50.730;-1.932;2023-04-27T03:09:00;101056.85;;;10.10;100.00
49645;BME280;36494;50.730;-1.932;2023-04-27T03:11:25;101051.08;;;10.00;100.00
49645;BME280;36494;50.730;-1.932;2023-04-27T03:13:51;101048.05;;;9.94;100.00
49645;BME280;36494;50.730;-1.932;2023-04-27T03:16:16;101046.28;;;10.04;100.00
49645;BME280;36494;50.730;-1.932;2023-04-27T03:18:41;101048.99;;;10.06;100.00
49645;BME280;36494;50.730;-1.932;2023-04-27T03:21:07;101051.14;;;10.04;100.00
49645;BME280;36494;50.730;-1.932;2023-04-27T03:23:32;101048.90;;;10.05;100.00
49645;BME280;36494;50.730;-1.932;2023-04-27T03:25:57;101052.79;;;10.06;100.00
49645;BME280;36494;50.730;-1.932;2023-04-27T03:28:22;101048.69;;;10.01;100.00
49645;BME280;36494;50.730;-1.932;2023-04-27T03:30:47;101043.87;;;9.98;100.00
49645;BME280;36494;50.730;-1.932;2023-04-27T03:33:13;101039.85;;;10.02;100.00
49645;BME280;36494;50.730;-1.932;2023-04-27T03:35:38;101035.45;;;10.04;100.00
49645;BME280;36494;50.730;-1.932;2023-04-27T03:38:04;101023.96;;;10.00;100.00
49645;BME280;36494;50.730;-1.932;2023-04-27T03:40:29;101012.25;;;10.06;100.00
49645;BME280;36494;50.730;-1.932;2023-04-27T03:42:54;101004.05;;;10.09;100.00
49645;BME280;36494;50.730;-1.932;2023-04-27T03:45:20;101004.48;;;10.10;100.00
49645;BME280;36494;50.730;-1.932;2023-04-27T03:47:45;101005.11;;;10.11;100.00
49645;BME280;36494;50.730;-1.932;2023-04-27T03:50:11;101009.10;;;10.11;100.00
49645;BME280;36494;50.730;-1.932;2023-04-27T03:52:36;101013.75;;;10.08;100.00
49645;BME280;36494;50.730;-1.932;2023-04-27T03:55:01;101011.17;;;10.09;100.00
49645;BME280;36494;50.730;-1.932;2023-04-27T03:57:27;101005.07;;;10.06;100.00
49645;BME280;36494;50.730;-1.932;2023-04-27T03:59:52;101003.16;;;10.08;100.00
49645;BME280;36494;50.730;-1.932;2023-04-27T04:02:18;101001.20;;;10.08;100.00
49645;BME280;36494;50.730;-1.932;2023-04-27T04:04:43;100997.93;;;10.11;100.00
49645;BME280;36494;50.730;-1.932;2023-04-27T04:07:09;100996.84;;;10.18;100.00
49645;BME280;36494;50.730;-1.932;2023-04-27T04:09:34;100995.48;;;10.18;100.00
49645;BME280;36494;50.730;-1.932;2023-04-27T04:12:00;100993.44;;;10.18;100.00
49645;BME280;36494;50.730;-1.932;2023-04-27T04:14:26;100991.44;;;10.20;100.00
49645;BME280;36494;50.730;-1.932;2023-04-27T04:16:51;100985.15;;;10.22;100.00
49645;BME280;36494;50.730;-1.932;2023-04-27T04:19:16;100981.13;;;10.25;100.00
49645;BME280;36494;50.730;-1.932;2023-04-27T04:21:41;100983.37;;;10.27;100.00
49645;BME280;36494;50.730;-1.932;2023-04-27T04:24:06;100979.23;;;10.25;100.00
49645;BME280;36494;50.730;-1.932;2023-04-27T04:26:31;100980.59;;;10.24;100.00
49645;BME280;36494;50.730;-1.932;2023-04-27T04:28:57;100984.38;;;10.28;100.00
49645;BME280;36494;50.730;-1.932;2023-04-27T04:31:22;100988.55;;;10.27;100.00
49645;BME280;36494;50.730;-1.932;2023-04-27T04:33:47;100984.43;;;10.31;100.00
49645;BME280;36494;50.730;-1.932;2023-04-27T04:36:13;100985.30;;;10.33;100.00
49645;BME280;36494;50.730;-1.932;2023-04-27T04:38:38;100979.15;;;10.34;100.00
49645;BME280;36494;50.730;-1.932;2023-04-27T04:41:04;100971.73;;;10.31;100.00
49645;BME280;36494;50.730;-1.932;2023-04-27T04:43:30;100966.76;;;10.35;100.00
49645;BME280;36494;50.730;-1.932;2023-04-27T04:45:55;100969.46;;;10.20;100.00
49645;BME280;36494;50.730;-1.932;2023-04-27T04:48:20;100971.75;;;10.28;100.00
49645;BME280;36494;50.730;-1.932;2023-04-27T04:50:45;100967.94;;;10.28;100.00
49645;BME280;36494;50.730;-1.932;2023-04-27T04:53:10;100969.04;;;10.33;100.00
49645;BME280;36494;50.730;-1.932;2023-04-27T04:55:36;100976.03;;;10.31;100.00
49645;BME280;36494;50.730;-1.932;2023-04-27T04:58:01;100973.70;;;10.26;100.00
49645;BME280;36494;50.730;-1.932;2023-04-27T05:00:27;100968.08;;;10.29;100.00
49645;BME280;36494;50.730;-1.932;2023-04-27T05:02:52;100968.08;;;10.33;100.00
49645;BME280;36494;50.730;-1.932;2023-04-27T05:05:17;100966.97;;;10.35;100.00
49645;BME280;36494;50.730;-1.932;2023-04-27T05:07:42;100976.86;;;10.30;100.00
49645;BME280;36494;50.730;-1.932;2023-04-27T05:10:08;100987.15;;;10.30;100.00
49645;BME280;36494;50.730;-1.932;2023-04-27T05:12:34;100986.29;;;10.18;100.00
49645;BME280;36494;50.730;-1.932;2023-04-27T05:14:59;100975.37;;;10.30;100.00
49645;BME280;36494;50.730;-1.932;2023-04-27T05:17:24;100976.18;;;10.30;100.00
49645;BME280;36494;50.730;-1.932;2023-04-27T05:19:49;100985.21;;;10.32;100.00
49645;BME280;36494;50.730;-1.932;2023-04-27T05:22:15;100987.89;;;10.36;100.00
49645;BME280;36494;50.730;-1.932;2023-04-27T05:24:40;100992.01;;;10.36;100.00
49645;BME280;36494;50.730;-1.932;2023-04-27T05:27:05;100990.44;;;10.36;100.00
49645;BME280;36494;50.730;-1.932;2023-04-27T05:29:30;100985.97;;;10.30;100.00
49645;BME280;36494;50.730;-1.932;2023-04-27T05:31:55;100993.87;;;10.32;100.00
49645;BME280;36494;50.730;-1.932;2023-04-27T05:34:21;100991.73;;;10.21;100.00
49645;BME280;36494;50.730;-1.932;2023-04-27T05:36:46;100985.42;;;10.30;100.00
49645;BME280;36494;50.730;-1.932;2023-04-27T05:39:12;100997.11;;;10.35;100.00
49645;BME280;36494;50.730;-1.932;2023-04-27T05:41:38;100998.95;;;10.36;100.00
49645;BME280;36494;50.730;-1.932;2023-04-27T05:44:03;100991.54;;;10.31;100.00
49645;BME280;36494;50.730;-1.932;2023-04-27T05:46:28;100989.33;;;10.29;100.00
49645;BME280;36494;50.730;-1.932;2023-04-27T05:48:53;100988.66;;;10.34;100.00
49645;BME280;36494;50.730;-1.932;2023-04-27T05:51:19;100987.35;;;10.32;100.00
49645;BME280;36494;50.730;-1.932;2023-04-27T05:53:44;100981.08;;;10.37;100.00
49645;BME280;36494;50.730;-1.932;2023-04-27T05:56:10;100984.02;;;10.24;100.00
49645;BME280;36494;50.730;-1.932;2023-04-27T05:58:35;100982.29;;;10.30;100.00
49645;BME280;36494;50.730;-1.932;2023-04-27T06:01:01;100985.53;;;10.26;100.00
49645;BME280;36494;50.730;-1.932;2023-04-27T06:03:26;100981.35;;;10.31;100.00
49645;BME280;36494;50.730;-1.932;2023-04-27T06:05:53;100971.86;;;10.30;100.00
49645;BME280;36494;50.730;-1.932;2023-04-27T06:08:16;100967.89;;;10.33;100.00
49645;BME280;36494;50.730;-1.932;2023-04-27T06:10:42;100971.34;;;10.31;100.00
49645;BME280;36494;50.730;-1.932;2023-04-27T06:13:07;100966.79;;;10.30;100.00
49645;BME280;36494;50.730;-1.932;2023-04-27T06:15:32;100965.06;;;10.36;100.00
49645;BME280;36494;50.730;-1.932;2023-04-27T06:17:58;100962.71;;;10.39;100.00
49645;BME280;36494;50.730;-1.932;2023-04-27T06:20:23;100958.49;;;10.38;100.00
49645;BME280;36494;50.730;-1.932;2023-04-27T06:22:48;100962.29;;;10.33;100.00
49645;BME280;36494;50.730;-1.932;2023-04-27T06:25:14;100957.69;;;10.38;100.00
49645;BME280;36494;50.730;-1.932;2023-04-27T06:27:40;100960.07;;;10.38;100.00
49645;BME280;36494;50.730;-1.932;2023-04-27T06:30:06;100962.18;;;10.44;100.00
49645;BME280;36494;50.730;-1.932;2023-04-27T06:32:30;100963.51;;;10.44;100.00
49645;BME280;36494;50.730;-1.932;2023-04-27T06:34:55;100968.88;;;10.45;100.00
49645;BME280;36494;50.730;-1.932;2023-04-27T06:37:21;100970.46;;;10.42;100.00
49645;BME280;36494;50.730;-1.932;2023-04-27T06:39:46;100971.65;;;10.43;100.00
49645;BME280;36494;50.730;-1.932;2023-04-27T06:42:12;100973.84;;;10.37;100.00
49645;BME280;36494;50.730;-1.932;2023-04-27T06:44:37;100987.88;;;10.42;100.00
49645;BME280;36494;50.730;-1.932;2023-04-27T06:47:03;101000.02;;;10.43;100.00
49645;BME280;36494;50.730;-1.932;2023-04-27T06:49:28;101001.35;;;10.40;100.00
49645;BME280;36494;50.730;-1.932;2023-04-27T06:51:53;100988.53;;;10.38;100.00
49645;BME280;36494;50.730;-1.932;2023-04-27T06:54:18;100980.92;;;10.44;100.00
49645;BME280;36494;50.730;-1.932;2023-04-27T06:56:44;100974.12;;;10.48;100.00
49645;BME280;36494;50.730;-1.932;2023-04-27T06:59:09;100969.77;;;10.51;100.00
49645;BME280;36494;50.730;-1.932;2023-04-27T07:01:35;100969.42;;;10.51;100.00
49645;BME280;36494;50.730;-1.932;2023-04-27T07:04:00;100968.47;;;10.55;100.00
49645;BME280;36494;50.730;-1.932;2023-04-27T07:06:26;100964.03;;;10.58;100.00
49645;BME280;36494;50.730;-1.932;2023-04-27T07:08:51;100969.14;;;10.61;100.00
49645;BME280;36494;50.730;-1.932;2023-04-27T07:11:17;100968.64;;;10.51;100.00
49645;BME280;36494;50.730;-1.932;2023-04-27T07:13:42;100975.67;;;10.60;100.00
49645;BME280;36494;50.730;-1.932;2023-04-27T07:16:07;100979.89;;;10.61;100.00
49645;BME280;36494;50.730;-1.932;2023-04-27T07:18:32;100982.16;;;10.61;100.00
49645;BME280;36494;50.730;-1.932;2023-04-27T07:20:57;100984.39;;;10.59;100.00
49645;BME280;36494;50.730;-1.932;2023-04-27T07:23:23;100986.76;;;10.62;100.00
49645;BME280;36494;50.730;-1.932;2023-04-27T07:25:48;100986.31;;;10.71;100.00
49645;BME280;36494;50.730;-1.932;2023-04-27T07:28:14;100979.36;;;10.56;100.00
49645;BME280;36494;50.730;-1.932;2023-04-27T07:30:39;100979.04;;;10.61;100.00
49645;BME280;36494;50.730;-1.932;2023-04-27T07:33:04;100974.19;;;10.64;100.00
49645;BME280;36494;50.730;-1.932;2023-04-27T07:35:29;100967.88;;;10.70;100.00
49645;BME280;36494;50.730;-1.932;2023-04-27T07:37:54;100959.68;;;10.69;100.00
49645;BME280;36494;50.730;-1.932;2023-04-27T07:40:20;100956.80;;;10.74;100.00
49645;BME280;36494;50.730;-1.932;2023-04-27T07:42:45;100962.26;;;10.83;100.00
49645;BME280;36494;50.730;-1.932;2023-04-27T07:45:11;100962.25;;;10.80;100.00
49645;BME280;36494;50.730;-1.932;2023-04-27T07:47:37;100969.28;;;10.79;100.00
49645;BME280;36494;50.730;-1.932;2023-04-27T07:50:03;100971.06;;;10.62;100.00
49645;BME280;36494;50.730;-1.932;2023-04-27T07:52:27;100971.49;;;10.56;100.00
49645;BME280;36494;50.730;-1.932;2023-04-27T07:54:53;100971.41;;;10.59;100.00
49645;BME280;36494;50.730;-1.932;2023-04-27T07:57:18;100967.89;;;10.62;100.00
49645;BME280;36494;50.730;-1.932;2023-04-27T07:59:44;100966.08;;;10.66;100.00
49645;BME280;36494;50.730;-1.932;2023-04-27T08:02:09;100963.14;;;10.75;100.00
49645;BME280;36494;50.730;-1.932;2023-04-27T08:04:34;100959.97;;;10.83;100.00
49645;BME280;36494;50.730;-1.932;2023-04-27T08:07:00;100960.86;;;10.76;100.00
49645;BME280;36494;50.730;-1.932;2023-04-27T08:09:25;100956.43;;;10.87;100.00
49645;BME280;36494;50.730;-1.932;2023-04-27T08:11:51;100952.56;;;10.87;100.00
49645;BME280;36494;50.730;-1.932;2023-04-27T08:14:16;100951.34;;;10.88;100.00
49645;BME280;36494;50.730;-1.932;2023-04-27T08:16:42;100948.88;;;10.87;100.00
49645;BME280;36494;50.730;-1.932;2023-04-27T08:19:07;100948.58;;;10.86;100.00
49645;BME280;36494;50.730;-1.932;2023-04-27T08:21:33;100951.29;;;10.82;100.00
49645;BME280;36494;50.730;-1.932;2023-04-27T08:23:58;100954.67;;;10.81;100.00
49645;BME280;36494;50.730;-1.932;2023-04-27T08:26:23;100949.35;;;10.78;100.00
49645;BME280;36494;50.730;-1.932;2023-04-27T08:28:48;100945.20;;;10.76;100.00
49645;BME280;36494;50.730;-1.932;2023-04-27T08:31:14;100944.85;;;10.70;100.00
49645;BME280;36494;50.730;-1.932;2023-04-27T08:33:39;100935.87;;;10.78;100.00
49645;BME280;36494;50.730;-1.932;2023-04-27T08:36:04;100935.90;;;10.89;100.00
49645;BME280;36494;50.730;-1.932;2023-04-27T08:38:30;100930.00;;;10.79;100.00
49645;BME280;36494;50.730;-1.932;2023-04-27T08:40:55;100927.07;;;10.83;100.00
49645;BME280;36494;50.730;-1.932;2023-04-27T08:43:20;100925.70;;;10.87;100.00
49645;BME280;36494;50.730;-1.932;2023-04-27T08:45:47;100921.28;;;10.70;100.00
49645;BME280;36494;50.730;-1.932;2023-04-27T08:48:11;100919.60;;;10.69;100.00
49645;BME280;36494;50.730;-1.932;2023-04-27T08:50:37;100919.64;;;10.74;100.00
49645;BME280;36494;50.730;-1.932;2023-04-27T08:53:01;100911.46;;;10.73;100.00
49645;BME280;36494;50.730;-1.932;2023-04-27T08:55:27;100911.21;;;10.71;100.00
49645;BME280;36494;50.730;-1.932;2023-04-27T08:57:53;100906.27;;;10.81;100.00
49645;BME280;36494;50.730;-1.932;2023-04-27T09:00:19;100899.31;;;10.73;100.00
49645;BME280;36494;50.730;-1.932;2023-04-27T09:02:44;100902.49;;;10.73;100.00
49645;BME280;36494;50.730;-1.932;2023-04-27T09:05:15;100903.56;;;10.80;100.00
49645;BME280;36494;50.730;-1.932;2023-04-27T09:07:34;100905.57;;;10.72;100.00
49645;BME280;36494;50.730;-1.932;2023-04-27T09:10:03;100898.13;;;10.56;100.00
49645;BME280;36494;50.730;-1.932;2023-04-27T09:12:24;100894.39;;;10.62;100.00
49645;BME280;36494;50.730;-1.932;2023-04-27T09:14:55;100892.98;;;10.70;100.00
49645;BME280;36494;50.730;-1.932;2023-04-27T09:17:15;100892.15;;;10.53;100.00
49645;BME280;36494;50.730;-1.932;2023-04-27T09:19:41;100885.15;;;10.61;100.00
49645;BME280;36494;50.730;-1.932;2023-04-27T09:22:08;100883.63;;;10.71;100.00
49645;BME280;36494;50.730;-1.932;2023-04-27T09:24:32;100879.69;;;10.77;100.00
49645;BME280;36494;50.730;-1.932;2023-04-27T09:26:58;100872.17;;;10.74;100.00
49645;BME280;36494;50.730;-1.932;2023-04-27T09:29:32;100868.73;;;10.74;100.00
49645;BME280;36494;50.730;-1.932;2023-04-27T09:31:48;100866.20;;;10.79;100.00
49645;BME280;36494;50.730;-1.932;2023-04-27T09:34:14;100864.01;;;10.65;100.00
49645;BME280;36494;50.730;-1.932;2023-04-27T09:36:39;100874.32;;;10.76;100.00
49645;BME280;36494;50.730;-1.932;2023-04-27T09:39:05;100876.05;;;10.52;100.00
49645;BME280;36494;50.730;-1.932;2023-04-27T09:41:31;100870.96;;;10.56;100.00
49645;BME280;36494;50.730;-1.932;2023-04-27T09:43:56;100869.64;;;10.70;100.00
49645;BME280;36494;50.730;-1.932;2023-04-27T09:46:21;100860.42;;;10.72;100.00
49645;BME280;36494;50.730;-1.932;2023-04-27T09:48:46;100865.17;;;10.67;100.00
49645;BME280;36494;50.730;-1.932;2023-04-27T09:51:13;100860.78;;;10.68;100.00
49645;BME280;36494;50.730;-1.932;2023-04-27T09:53:42;100853.26;;;10.77;100.00
49645;BME280;36494;50.730;-1.932;2023-04-27T09:56:15;100845.85;;;10.88;100.00
49645;BME280;36494;50.730;-1.932;2023-04-27T09:58:42;100845.50;;;10.85;100.00
49645;BME280;36494;50.730;-1.932;2023-04-27T10:01:00;100840.97;;;10.76;100.00
49645;BME280;36494;50.730;-1.932;2023-04-27T10:03:22;100828.59;;;10.94;100.00
49645;BME280;36494;50.730;-1.932;2023-04-27T10:08:09;100826.21;;;10.99;100.00
49645;BME280;36494;50.730;-1.932;2023-04-27T10:10:45;100827.34;;;11.10;100.00
49645;BME280;36494;50.730;-1.932;2023-04-27T10:13:00;100829.89;;;11.12;100.00
49645;BME280;36494;50.730;-1.932;2023-04-27T10:15:26;100830.14;;;11.26;100.00
49645;BME280;36494;50.730;-1.932;2023-04-27T10:17:51;100833.17;;;11.32;100.00
49645;BME280;36494;50.730;-1.932;2023-04-27T10:20:15;100835.98;;;11.36;100.00
49645;BME280;36494;50.730;-1.932;2023-04-27T10:22:42;100840.55;;;11.28;100.00
49645;BME280;36494;50.730;-1.932;2023-04-27T10:25:15;100844.89;;;11.34;100.00
49645;BME280;36494;50.730;-1.932;2023-04-27T10:27:38;100849.95;;;11.31;100.00
49645;BME280;36494;50.730;-1.932;2023-04-27T10:30:07;100851.98;;;11.17;100.00
49645;BME280;36494;50.730;-1.932;2023-04-27T10:32:24;100852.35;;;11.09;100.00
49645;BME280;36494;50.730;-1.932;2023-04-27T10:34:48;100853.75;;;11.09;100.00
49645;BME280;36494;50.730;-1.932;2023-04-27T10:37:14;100858.26;;;11.08;100.00
49645;BME280;36494;50.730;-1.932;2023-04-27T10:39:41;100856.45;;;11.11;100.00
49645;BME280;36494;50.730;-1.932;2023-04-27T10:42:05;100853.10;;;11.18;100.00
49645;BME280;36494;50.730;-1.932;2023-04-27T10:44:31;100849.90;;;11.21;100.00
49645;BME280;36494;50.730;-1.932;2023-04-27T10:46:57;100850.10;;;11.36;100.00
49645;BME280;36494;50.730;-1.932;2023-04-27T10:49:22;100850.23;;;11.33;100.00
49645;BME280;36494;50.730;-1.932;2023-04-27T10:51:48;100851.38;;;11.44;100.00
49645;BME280;36494;50.730;-1.932;2023-04-27T10:54:12;100856.55;;;11.30;100.00
49645;BME280;36494;50.730;-1.932;2023-04-27T10:56:38;100851.87;;;11.41;100.00
49645;BME280;36494;50.730;-1.932;2023-04-27T10:59:04;100849.44;;;11.49;100.00
49645;BME280;36494;50.730;-1.932;2023-04-27T11:01:28;100851.49;;;11.49;100.00
49645;BME280;36494;50.730;-1.932;2023-04-27T11:03:54;100845.60;;;11.51;100.00
49645;BME280;36494;50.730;-1.932;2023-04-27T11:06:19;100843.33;;;11.57;100.00
49645;BME280;36494;50.730;-1.932;2023-04-27T11:08:44;100846.32;;;11.70;100.00
49645;BME280;36494;50.730;-1.932;2023-04-27T11:11:14;100841.38;;;11.58;100.00
49645;BME280;36494;50.730;-1.932;2023-04-27T11:13:35;100838.49;;;11.67;100.00
49645;BME280;36494;50.730;-1.932;2023-04-27T11:16:03;100828.80;;;11.66;100.00
49645;BME280;36494;50.730;-1.932;2023-04-27T11:18:29;100821.90;;;11.61;100.00
49645;BME280;36494;50.730;-1.932;2023-04-27T11:20:54;100819.93;;;11.53;100.00
49645;BME280;36494;50.730;-1.932;2023-04-27T11:23:22;100814.23;;;11.49;100.00
49645;BME280;36494;50.730;-1.932;2023-04-27T11:25:42;100808.10;;;11.55;100.00
49645;BME280;36494;50.730;-1.932;2023-04-27T11:28:16;100801.05;;;11.37;100.00
49645;BME280;36494;50.730;-1.932;2023-04-27T11:30:33;100794.50;;;11.44;100.00
49645;BME280;36494;50.730;-1.932;2023-04-27T11:32:58;100795.63;;;11.49;100.00
49645;BME280;36494;50.730;-1.932;2023-04-27T11:35:31;100797.78;;;11.53;100.00
49645;BME280;36494;50.730;-1.932;2023-04-27T11:37:55;100802.35;;;11.51;100.00
49645;BME280;36494;50.730;-1.932;2023-04-27T11:40:14;100805.86;;;11.43;100.00
49645;BME280;36494;50.730;-1.932;2023-04-27T11:42:40;100799.97;;;11.25;100.00
49645;BME280;36494;50.730;-1.932;2023-04-27T11:45:09;100799.32;;;11.27;100.00
49645;BME280;36494;50.730;-1.932;2023-04-27T11:47:32;100785.79;;;11.20;100.00
49645;BME280;36494;50.730;-1.932;2023-04-27T11:49:57;100770.57;;;11.27;100.00
49645;BME280;36494;50.730;-1.932;2023-04-27T11:52:21;100769.50;;;11.35;100.00
49645;BME280;36494;50.730;-1.932;2023-04-27T11:54:47;100762.28;;;11.29;100.00
49645;BME280;36494;50.730;-1.932;2023-04-27T11:57:11;100760.15;;;11.31;100.00
49645;BME280;36494;50.730;-1.932;2023-04-27T11:59:37;100761.30;;;11.31;100.00
49645;BME280;36494;50.730;-1.932;2023-04-27T12:02:02;100753.41;;;11.25;100.00
49645;BME280;36494;50.730;-1.932;2023-04-27T12:04:28;100743.57;;;11.24;100.00
49645;BME280;36494;50.730;-1.932;2023-04-27T12:06:53;100737.80;;;11.20;100.00
49645;BME280;36494;50.730;-1.932;2023-04-27T12:09:18;100731.49;;;11.25;100.00
49645;BME280;36494;50.730;-1.932;2023-04-27T12:11:44;100725.09;;;11.16;100.00
49645;BME280;36494;50.730;-1.932;2023-04-27T12:14:10;100726.47;;;11.10;100.00
49645;BME280;36494;50.730;-1.932;2023-04-27T12:16:35;100729.11;;;11.00;100.00
49645;BME280;36494;50.730;-1.932;2023-04-27T12:19:01;100720.17;;;10.88;100.00
49645;BME280;36494;50.730;-1.932;2023-04-27T12:21:27;100721.28;;;10.92;100.00
49645;BME280;36494;50.730;-1.932;2023-04-27T12:23:52;100719.15;;;10.91;100.00